createdAt,value
2019-02-16T00:00:46.077Z,98.40
2019-02-16T00:02:23.082Z,98.40
2019-02-16T00:03:58.688Z,98.60
2019-02-16T00:05:34.424Z,98.60
2019-02-16T00:07:10.093Z,98.70
2019-02-16T00:08:45.686Z,98.50
2019-02-16T00:10:21.544Z,98.50
2019-02-16T00:11:57.154Z,98.50
2019-02-16T00:13:33.354Z,98.40
2019-02-16T00:15:09.777Z,98.40
2019-02-16T00:16:45.643Z,98.70
2019-02-16T00:18:22.954Z,98.40
2019-02-16T00:19:58.863Z,98.30
2019-02-16T00:21:34.558Z,98.30
2019-02-16T00:23:10.165Z,98.30
2019-02-16T00:24:46.178Z,98.40
2019-02-16T00:26:21.848Z,98.30
2019-02-16T00:27:57.469Z,98.30
2019-02-16T00:29:33.237Z,98.40
2019-02-16T00:31:08.980Z,98.40
2019-02-16T00:32:46.245Z,98.40
2019-02-16T00:34:21.977Z,98.40
2019-02-16T00:35:57.684Z,98.50
2019-02-16T00:37:34.702Z,98.50
2019-02-16T00:39:10.328Z,98.50
2019-02-16T00:40:46.137Z,98.50
2019-02-16T00:42:21.790Z,98.50
2019-02-16T00:44:00.307Z,98.50
2019-02-16T00:45:35.930Z,98.50
2019-02-16T00:47:11.733Z,98.80
2019-02-16T00:48:47.451Z,98.70
2019-02-16T00:50:23.056Z,98.90
2019-02-16T00:51:58.671Z,99.50
2019-02-16T00:53:34.461Z,99.50
2019-02-16T00:55:10.100Z,99.50
2019-02-16T00:56:45.615Z,99.20
2019-02-16T00:58:21.328Z,99.20
2019-02-16T00:59:56.933Z,99.10
2019-02-16T01:01:32.575Z,99.00
2019-02-16T01:03:08.109Z,99.00
2019-02-16T01:04:43.700Z,98.90
2019-02-16T01:06:19.400Z,98.90
2019-02-16T01:07:55.209Z,99.00
2019-02-16T01:09:30.854Z,99.00
2019-02-16T01:11:06.537Z,99.20
2019-02-16T01:12:42.157Z,99.10
2019-02-16T01:14:17.784Z,99.10
2019-02-16T01:15:53.404Z,99.10
2019-02-16T01:17:29.116Z,98.90
2019-02-16T01:19:04.730Z,99.00
2019-02-16T01:20:40.238Z,99.00
2019-02-16T01:22:16.058Z,99.10
2019-02-16T01:23:51.711Z,99.00
2019-02-16T01:25:27.244Z,99.10
2019-02-16T01:27:02.854Z,99.10
2019-02-16T01:28:38.449Z,99.10
2019-02-16T01:30:13.964Z,99.10
2019-02-16T01:31:49.410Z,99.00
2019-02-16T01:33:24.928Z,99.10
2019-02-16T01:35:00.541Z,99.00
2019-02-16T01:36:36.143Z,99.00
2019-02-16T01:38:11.663Z,99.00
2019-02-16T01:39:47.258Z,99.00
2019-02-16T01:41:23.208Z,99.00
2019-02-16T01:42:58.820Z,98.90
2019-02-16T01:44:34.421Z,98.90
2019-02-16T01:46:09.924Z,98.90
2019-02-16T01:47:45.657Z,98.90
2019-02-16T01:49:21.188Z,98.90
2019-02-16T01:50:56.741Z,98.90
2019-02-16T01:52:32.352Z,98.80
2019-02-16T01:54:07.965Z,98.90
2019-02-16T01:55:43.575Z,98.80
2019-02-16T01:57:19.221Z,98.80
2019-02-16T01:58:54.812Z,98.80
2019-02-16T02:00:30.358Z,98.80
2019-02-16T02:02:06.060Z,98.80
2019-02-16T02:03:41.580Z,98.70
2019-02-16T02:05:17.170Z,98.70
2019-02-16T02:06:52.697Z,98.70
2019-02-16T02:08:28.308Z,98.70
2019-02-16T02:10:04.185Z,98.70
2019-02-16T02:11:39.786Z,98.70
2019-02-16T02:13:15.310Z,98.70
2019-02-16T02:14:50.882Z,98.80
2019-02-16T02:16:26.407Z,98.80
2019-02-16T02:18:02.022Z,98.80
2019-02-16T02:19:37.736Z,99.20
2019-02-16T02:21:13.280Z,99.20
2019-02-16T02:22:48.795Z,98.90
2019-02-16T02:24:24.435Z,99.00
2019-02-16T02:25:59.937Z,99.00
2019-02-16T02:27:35.552Z,99.00
2019-02-16T02:29:11.296Z,99.00
2019-02-16T02:30:47.288Z,99.00
2019-02-16T02:32:23.069Z,98.90
2019-02-16T02:33:58.790Z,98.90
2019-02-16T02:35:34.428Z,98.90
2019-02-16T02:37:09.941Z,98.90
2019-02-16T02:38:45.556Z,98.90
2019-02-16T02:40:21.072Z,98.90
2019-02-16T02:41:56.616Z,99.00
2019-02-16T02:43:32.224Z,98.90
2019-02-16T02:45:10.836Z,98.90
2019-02-16T02:46:46.428Z,98.80
2019-02-16T02:48:22.168Z,98.90
2019-02-16T02:49:57.681Z,98.80
2019-02-16T02:51:33.467Z,98.80
2019-02-16T02:53:09.151Z,98.70
2019-02-16T02:54:44.794Z,98.80
2019-02-16T02:56:20.421Z,98.70
2019-02-16T02:57:55.929Z,98.70
2019-02-16T02:59:31.716Z,98.60
2019-02-16T03:01:07.301Z,98.60
2019-02-16T03:02:42.927Z,98.60
2019-02-16T03:04:18.444Z,98.50
2019-02-16T03:05:54.207Z,98.60
2019-02-16T03:07:29.887Z,98.50
2019-02-16T03:09:06.190Z,98.50
2019-02-16T03:10:41.713Z,98.50
2019-02-16T03:12:17.239Z,98.40
2019-02-16T03:13:52.957Z,98.70
2019-02-16T03:15:28.473Z,98.70
2019-02-16T03:17:04.063Z,98.80
2019-02-16T03:18:39.591Z,98.90
2019-02-16T03:20:15.217Z,98.90
2019-02-16T03:21:50.806Z,98.80
2019-02-16T03:23:26.415Z,99.10
2019-02-16T03:25:01.943Z,98.70
2019-02-16T03:26:48.414Z,98.70
2019-02-16T03:28:53.382Z,98.70
2019-02-16T03:30:42.389Z,98.70
2019-02-16T03:32:28.415Z,98.60
2019-02-16T03:34:10.326Z,98.70
2019-02-16T03:36:09.046Z,98.60
2019-02-16T03:38:12.056Z,98.50
2019-02-16T03:39:47.945Z,98.50
2019-02-16T03:41:23.567Z,98.50
2019-02-16T03:42:59.178Z,98.40
2019-02-16T03:44:34.811Z,98.60
2019-02-16T03:46:10.450Z,98.60
2019-02-16T03:47:46.070Z,98.60
2019-02-16T03:49:21.593Z,98.60
2019-02-16T03:50:57.273Z,98.70
2019-02-16T03:52:32.930Z,98.70
2019-02-16T03:54:09.944Z,98.70
2019-02-16T03:55:45.657Z,98.80
2019-02-16T03:57:21.169Z,99.00
2019-02-16T03:58:56.914Z,98.70
2019-02-16T04:00:32.521Z,98.70
2019-02-16T04:02:08.222Z,98.70
2019-02-16T04:03:43.899Z,98.70
2019-02-16T04:05:19.567Z,98.80
2019-02-16T04:06:55.079Z,98.80
2019-02-16T04:08:30.667Z,98.80
2019-02-16T04:10:07.826Z,98.80
2019-02-16T04:11:43.577Z,98.80
2019-02-16T04:13:19.198Z,99.00
2019-02-16T04:14:54.704Z,99.10
2019-02-16T04:16:30.285Z,99.30
2019-02-16T04:18:05.869Z,99.30
2019-02-16T04:19:41.462Z,99.30
2019-02-16T04:21:16.972Z,99.20
2019-02-16T04:22:52.609Z,99.30
2019-02-16T04:24:28.250Z,99.30
2019-02-16T04:26:05.515Z,99.30
2019-02-16T04:27:41.169Z,99.30
2019-02-16T04:29:16.794Z,99.40
2019-02-16T04:30:52.699Z,99.50
2019-02-16T04:32:28.315Z,99.40
2019-02-16T04:34:04.115Z,99.40
2019-02-16T04:35:39.723Z,99.40
2019-02-16T04:37:15.417Z,99.50
2019-02-16T04:38:51.043Z,99.50
2019-02-16T04:40:26.663Z,99.50
2019-02-16T04:42:02.382Z,99.60
2019-02-16T04:43:38.277Z,99.60
2019-02-16T04:45:14.000Z,99.50
2019-02-16T04:46:49.812Z,99.60
2019-02-16T04:48:25.446Z,99.60
2019-02-16T04:50:01.152Z,99.50
2019-02-16T04:51:36.946Z,99.50
2019-02-16T04:53:13.285Z,99.50
2019-02-16T04:54:48.900Z,99.50
2019-02-16T04:56:24.678Z,99.60
2019-02-16T04:58:00.209Z,99.60
2019-02-16T04:59:35.734Z,99.70
2019-02-16T05:01:11.456Z,99.60
2019-02-16T05:02:47.015Z,99.60
2019-02-16T05:04:22.644Z,99.60
2019-02-16T05:05:59.807Z,99.50
2019-02-16T05:07:35.411Z,99.50
2019-02-16T05:09:11.141Z,99.50
2019-02-16T05:10:46.656Z,99.50
2019-02-16T05:12:22.382Z,99.50
2019-02-16T05:13:57.832Z,99.50
2019-02-16T05:15:33.467Z,99.50
2019-02-16T05:17:08.984Z,99.50
2019-02-16T05:18:44.512Z,99.50
2019-02-16T05:20:20.164Z,99.50
2019-02-16T05:21:55.685Z,99.50
2019-02-16T05:23:31.370Z,99.50
2019-02-16T05:25:07.134Z,99.50
2019-02-16T05:26:42.653Z,99.50
2019-02-16T05:28:18.171Z,99.50
2019-02-16T05:29:53.701Z,99.50
2019-02-16T05:31:29.209Z,99.50
2019-02-16T05:33:04.853Z,99.50
2019-02-16T05:34:40.477Z,99.50
2019-02-16T05:36:16.194Z,99.50
2019-02-16T05:37:51.940Z,99.50
2019-02-16T05:39:27.526Z,99.40
2019-02-16T05:41:03.288Z,99.50
2019-02-16T05:42:39.024Z,99.40
2019-02-16T05:44:14.613Z,99.50
2019-02-16T05:45:50.132Z,99.50
2019-02-16T05:47:25.769Z,99.40
2019-02-16T05:49:01.281Z,99.50
2019-02-16T05:50:36.835Z,99.50
2019-02-16T05:52:12.459Z,99.50
2019-02-16T05:53:48.138Z,99.50
2019-02-16T05:55:23.682Z,99.50
2019-02-16T05:56:59.453Z,99.50
2019-02-16T05:58:35.050Z,99.60
2019-02-16T06:00:12.605Z,99.60
2019-02-16T06:01:54.095Z,99.60
2019-02-16T06:03:25.490Z,99.60
2019-02-16T06:05:01.196Z,99.60
2019-02-16T06:06:36.722Z,99.60
2019-02-16T06:08:12.445Z,99.60
2019-02-16T06:09:48.257Z,99.60
2019-02-16T06:11:24.113Z,99.60
2019-02-16T06:12:59.713Z,99.50
2019-02-16T06:14:35.236Z,99.50
2019-02-16T06:16:11.556Z,99.50
2019-02-16T06:17:47.337Z,99.60
2019-02-16T06:19:23.076Z,99.50
2019-02-16T06:20:58.584Z,99.50
2019-02-16T06:22:34.118Z,99.50
2019-02-16T06:24:09.733Z,99.50
2019-02-16T06:25:45.491Z,99.50
2019-02-16T06:27:21.087Z,99.60
2019-02-16T06:28:56.628Z,99.60
2019-02-16T06:30:32.128Z,99.60
2019-02-16T06:32:07.855Z,99.60
2019-02-16T06:33:43.867Z,99.60
2019-02-16T06:35:30.163Z,99.50
2019-02-16T06:37:07.417Z,99.50
2019-02-16T06:38:43.053Z,99.50
2019-02-16T06:40:18.558Z,99.40
2019-02-16T06:41:54.350Z,99.40
2019-02-16T06:43:29.944Z,99.40
2019-02-16T06:45:06.660Z,99.40
2019-02-16T06:46:42.309Z,99.40
2019-02-16T06:48:17.859Z,99.40
2019-02-16T06:49:53.566Z,99.30
2019-02-16T06:51:30.941Z,99.20
2019-02-16T06:53:12.796Z,99.10
2019-02-16T06:54:43.907Z,99.30
2019-02-16T06:56:21.154Z,99.00
2019-02-16T06:57:56.783Z,99.00
2019-02-16T06:59:32.387Z,99.00
2019-02-16T07:01:07.929Z,99.00
2019-02-16T07:02:43.537Z,99.00
2019-02-16T07:04:19.152Z,99.00
2019-02-16T07:05:54.654Z,98.90
2019-02-16T07:07:30.204Z,98.90
2019-02-16T07:09:06.118Z,99.00
2019-02-16T07:10:41.744Z,99.00
2019-02-16T07:12:18.739Z,99.00
2019-02-16T07:13:54.413Z,99.10
2019-02-16T07:15:30.009Z,99.00
2019-02-16T07:17:07.100Z,99.00
2019-02-16T07:18:44.470Z,98.90
2019-02-16T07:20:20.892Z,98.80
2019-02-16T07:21:56.403Z,98.70
2019-02-16T07:23:31.985Z,98.70
2019-02-16T07:25:08.501Z,98.80
2019-02-16T07:26:44.067Z,98.80
2019-02-16T07:28:19.559Z,98.80
2019-02-16T07:29:55.078Z,98.80
2019-02-16T07:31:30.670Z,98.90
2019-02-16T07:33:06.297Z,98.80
2019-02-16T07:34:41.927Z,98.90
2019-02-16T07:36:17.567Z,99.00
2019-02-16T07:37:53.136Z,98.90
2019-02-16T07:39:28.847Z,98.90
2019-02-16T07:41:04.371Z,98.90
2019-02-16T07:42:50.777Z,98.80
2019-02-16T07:44:30.866Z,98.90
2019-02-16T07:46:08.218Z,98.80
2019-02-16T07:47:45.480Z,98.80
2019-02-16T07:49:25.485Z,98.70
2019-02-16T07:51:05.610Z,98.70
2019-02-16T07:52:45.580Z,98.80
2019-02-16T07:54:25.380Z,98.80
2019-02-16T07:56:02.689Z,98.90
2019-02-16T07:57:39.861Z,98.90
2019-02-16T07:59:20.207Z,98.80
2019-02-16T08:01:03.760Z,98.70
2019-02-16T08:02:43.687Z,98.60
2019-02-16T08:04:38.585Z,98.80
2019-02-16T08:06:18.427Z,98.90
2019-02-16T08:07:58.552Z,98.90
2019-02-16T08:09:41.509Z,98.80
2019-02-16T08:11:37.303Z,98.70
2019-02-16T08:13:23.103Z,98.60
2019-02-16T08:15:00.393Z,98.60
2019-02-16T08:16:37.551Z,98.60
2019-02-16T08:18:29.966Z,98.60
2019-02-16T08:20:13.499Z,98.40
2019-02-16T08:21:50.921Z,98.40
2019-02-16T08:23:30.943Z,98.50
2019-02-16T08:25:10.805Z,98.50
2019-02-16T08:26:59.857Z,98.70
2019-02-16T08:28:37.065Z,98.70
2019-02-16T08:30:14.226Z,98.50
2019-02-16T08:31:54.186Z,98.40
2019-02-16T08:33:37.306Z,98.40
2019-02-16T08:35:30.694Z,98.40
2019-02-16T08:37:24.238Z,98.80
2019-02-16T08:39:01.609Z,98.30
2019-02-16T08:40:42.912Z,98.20
2019-02-16T08:42:21.562Z,98.30
2019-02-16T08:44:04.584Z,98.20
2019-02-16T08:45:41.832Z,98.30
2019-02-16T08:47:24.808Z,98.20
2019-02-16T08:49:02.003Z,98.10
2019-02-16T08:50:39.250Z,98.00
2019-02-16T08:52:16.402Z,97.90
2019-02-16T08:53:53.562Z,97.80
2019-02-16T08:55:30.728Z,97.80
2019-02-16T08:57:17.015Z,97.50
2019-02-16T08:59:06.509Z,97.60
2019-02-16T09:00:43.656Z,97.70
2019-02-16T09:02:26.797Z,97.70
2019-02-16T09:04:06.683Z,97.80
2019-02-16T09:05:46.763Z,97.90
2019-02-16T09:07:23.935Z,97.60
2019-02-16T09:09:01.237Z,97.40
2019-02-16T09:10:45.532Z,97.20
2019-02-16T09:12:31.835Z,97.10
2019-02-16T09:14:08.995Z,97.00
2019-02-16T09:16:03.600Z,97.00
2019-02-16T09:17:43.437Z,96.90
2019-02-16T09:19:21.627Z,96.90
2019-02-16T09:21:01.779Z,97.00
2019-02-16T09:22:44.460Z,97.00
2019-02-16T09:24:21.714Z,96.90
2019-02-16T09:25:59.019Z,96.80
2019-02-16T09:27:36.293Z,96.70
2019-02-16T09:29:16.650Z,96.80
2019-02-16T09:31:02.751Z,96.60
2019-02-16T09:32:56.131Z,96.60
2019-02-16T09:34:43.821Z,96.80
2019-02-16T09:36:23.797Z,96.60
2019-02-16T09:38:00.990Z,96.60
2019-02-16T09:39:55.720Z,96.50
2019-02-16T09:41:38.646Z,96.40
2019-02-16T09:43:15.909Z,96.20
2019-02-16T09:44:56.215Z,96.40
2019-02-16T09:46:33.459Z,96.40
2019-02-16T09:48:22.792Z,96.10
2019-02-16T09:50:02.742Z,96.00
2019-02-16T09:51:51.778Z,96.00
2019-02-16T09:53:27.390Z,96.30
2019-02-16T09:55:13.500Z,96.30
2019-02-16T09:56:53.748Z,96.20
2019-02-16T09:58:31.897Z,95.80
2019-02-16T10:00:21.011Z,95.70
2019-02-16T10:01:58.180Z,95.70
2019-02-16T10:03:35.324Z,95.80
2019-02-16T10:05:17.599Z,95.60
2019-02-16T10:07:12.492Z,95.20
2019-02-16T10:09:08.022Z,95.30
2019-02-16T10:10:54.010Z,95.40
2019-02-16T10:12:38.329Z,95.50
2019-02-16T10:14:18.522Z,95.30
2019-02-16T10:15:56.544Z,95.20
2019-02-16T10:17:39.759Z,95.20
2019-02-16T10:19:19.793Z,95.10
2019-02-16T10:20:55.176Z,94.90
2019-02-16T10:22:32.327Z,94.80
2019-02-16T10:24:17.720Z,94.80
2019-02-16T10:26:03.691Z,94.60
2019-02-16T10:27:40.833Z,94.50
2019-02-16T10:29:34.188Z,94.60
2019-02-16T10:31:14.194Z,94.60
2019-02-16T10:32:49.695Z,94.70
2019-02-16T10:34:27.812Z,94.70
2019-02-16T10:36:05.164Z,94.50
2019-02-16T10:37:58.727Z,94.40
2019-02-16T10:39:39.136Z,94.40
2019-02-16T10:41:29.738Z,94.30
2019-02-16T10:43:23.382Z,94.30
2019-02-16T10:45:00.853Z,94.40
2019-02-16T10:46:44.095Z,94.20
2019-02-16T10:48:24.158Z,94.20
2019-02-16T10:50:01.412Z,94.00
2019-02-16T10:51:38.660Z,94.00
2019-02-16T10:53:31.691Z,94.00
2019-02-16T10:55:10.622Z,93.90
2019-02-16T10:56:47.406Z,93.80
2019-02-16T10:58:30.047Z,93.70
2019-02-16T11:00:21.948Z,93.70
2019-02-16T11:01:59.094Z,94.10
2019-02-16T11:03:48.379Z,93.90
2019-02-16T11:05:31.293Z,93.90
2019-02-16T11:07:08.614Z,94.30
2019-02-16T11:09:02.187Z,94.10
2019-02-16T11:10:45.467Z,93.90
2019-02-16T11:12:31.842Z,93.90
2019-02-16T11:14:14.993Z,93.60
2019-02-16T11:15:56.093Z,93.50
2019-02-16T11:17:31.479Z,93.60
2019-02-16T11:19:08.719Z,93.40
2019-02-16T11:20:58.038Z,93.40
2019-02-16T11:22:35.276Z,93.40
2019-02-16T11:24:15.486Z,93.40
2019-02-16T11:26:05.010Z,93.10
2019-02-16T11:27:44.986Z,93.20
2019-02-16T11:29:25.252Z,93.30
2019-02-16T11:31:09.701Z,93.40
2019-02-16T11:32:46.921Z,93.30
2019-02-16T11:34:40.434Z,93.10
2019-02-16T11:36:17.677Z,92.80
2019-02-16T11:38:10.303Z,92.60
2019-02-16T11:40:03.869Z,92.40
2019-02-16T11:41:41.115Z,92.10
2019-02-16T11:43:33.379Z,92.20
2019-02-16T11:45:11.902Z,92.20
2019-02-16T11:47:04.923Z,91.70
2019-02-16T11:48:44.884Z,91.80
2019-02-16T11:50:37.114Z,91.90
2019-02-16T11:52:20.154Z,91.90
2019-02-16T11:54:12.178Z,91.90
2019-02-16T11:55:49.448Z,91.80
2019-02-16T11:57:26.688Z,91.50
2019-02-16T11:59:19.779Z,91.10
2019-02-16T12:01:02.750Z,90.90
2019-02-16T12:02:42.876Z,90.50
2019-02-16T12:04:23.074Z,90.30
2019-02-16T12:06:00.355Z,90.30
2019-02-16T12:07:37.497Z,89.80
2019-02-16T12:09:17.164Z,88.60
2019-02-16T12:11:03.607Z,88.00
2019-02-16T12:12:48.063Z,87.30
2019-02-16T12:14:31.199Z,86.10
2019-02-16T12:16:08.470Z,85.30
2019-02-16T12:18:01.606Z,85.10
2019-02-16T12:19:42.945Z,84.60
2019-02-16T12:21:36.523Z,83.80
2019-02-16T12:23:19.501Z,82.60
2019-02-16T12:25:04.977Z,82.10
2019-02-16T12:26:45.926Z,81.60
2019-02-16T12:28:29.072Z,81.30
2019-02-16T12:30:18.781Z,80.80
2019-02-16T12:32:05.206Z,80.60
2019-02-16T12:33:42.462Z,79.60
2019-02-16T12:35:19.809Z,78.90
2019-02-16T12:36:56.962Z,78.80
2019-02-16T12:38:43.091Z,77.50
2019-02-16T12:40:20.326Z,76.90
2019-02-16T12:42:00.431Z,77.20
2019-02-16T12:43:43.191Z,76.70
2019-02-16T12:45:21.446Z,77.00
2019-02-16T12:47:04.994Z,76.20
2019-02-16T12:48:58.176Z,75.50
2019-02-16T12:50:38.316Z,75.90
2019-02-16T12:52:31.841Z,75.60
2019-02-16T12:54:11.634Z,74.80
2019-02-16T12:56:05.103Z,74.40
2019-02-16T12:57:51.346Z,73.90
2019-02-16T12:59:34.541Z,74.10
2019-02-16T13:01:11.690Z,73.30
2019-02-16T13:02:48.954Z,72.70
2019-02-16T13:04:29.966Z,73.10
2019-02-16T13:06:12.638Z,72.80
2019-02-16T13:07:49.888Z,73.20
2019-02-16T13:09:42.078Z,72.70
2019-02-16T13:11:21.754Z,72.60
2019-02-16T13:13:04.621Z,72.90
2019-02-16T13:14:58.229Z,72.10
2019-02-16T13:16:38.522Z,72.10
2019-02-16T13:18:21.662Z,72.00
2019-02-16T13:20:04.744Z,71.80
2019-02-16T13:21:51.098Z,70.90
2019-02-16T13:23:28.527Z,71.10
2019-02-16T13:25:24.166Z,70.80
2019-02-16T13:26:54.721Z,70.20
2019-02-16T13:28:40.790Z,70.40
2019-02-16T13:30:24.047Z,70.10
2019-02-16T13:32:02.011Z,69.80
2019-02-16T13:33:54.399Z,69.60
2019-02-16T13:35:31.575Z,69.80
2019-02-16T13:37:08.719Z,68.70
2019-02-16T13:38:55.037Z,67.60
2019-02-16T13:40:35.416Z,66.80
2019-02-16T13:42:12.667Z,65.60
2019-02-16T13:43:53.768Z,64.40
2019-02-16T13:45:30.948Z,64.30
2019-02-16T13:47:10.908Z,64.50
2019-02-16T13:48:48.067Z,65.10
2019-02-16T13:50:25.325Z,65.00
2019-02-16T13:52:14.305Z,62.50
2019-02-16T13:54:06.664Z,60.90
2019-02-16T13:55:43.898Z,60.20
2019-02-16T13:57:26.858Z,59.40
2019-02-16T13:59:04.011Z,58.50
2019-02-16T14:00:47.048Z,58.30
2019-02-16T14:02:36.324Z,57.80
2019-02-16T14:04:30.564Z,58.10
2019-02-16T14:06:19.992Z,56.70
2019-02-16T14:08:13.594Z,56.80
2019-02-16T14:09:53.334Z,56.90
2019-02-16T14:11:33.683Z,56.80
2019-02-16T14:13:10.926Z,56.00
2019-02-16T14:14:51.019Z,55.60
2019-02-16T14:16:40.490Z,55.40
2019-02-16T14:18:17.486Z,55.10
2019-02-16T14:19:53.200Z,54.40
2019-02-16T14:21:28.818Z,54.30
2019-02-16T14:23:04.428Z,54.40
2019-02-16T14:24:47.397Z,54.10
2019-02-16T14:26:23.020Z,54.20
2019-02-16T14:27:58.614Z,54.20
2019-02-16T14:29:34.241Z,53.50
2019-02-16T14:31:09.929Z,52.60
2019-02-16T14:32:45.445Z,52.60
2019-02-16T14:34:20.980Z,52.70
2019-02-16T14:35:56.491Z,52.80
2019-02-16T14:37:33.841Z,53.40
2019-02-16T14:39:13.843Z,53.00
2019-02-16T14:40:49.463Z,53.10
2019-02-16T14:42:24.961Z,52.70
2019-02-16T14:44:00.395Z,53.00
2019-02-16T14:45:37.551Z,53.10
2019-02-16T14:47:13.188Z,53.20
2019-02-16T14:48:50.043Z,52.80
2019-02-16T14:50:25.782Z,52.70
2019-02-16T14:52:01.491Z,53.10
2019-02-16T14:53:37.207Z,53.10
2019-02-16T14:55:17.625Z,53.00
2019-02-16T14:56:53.298Z,53.40
2019-02-16T14:58:28.902Z,53.10
2019-02-16T15:00:08.051Z,53.10
2019-02-16T15:01:43.565Z,52.70
2019-02-16T15:03:19.088Z,52.60
2019-02-16T15:04:54.769Z,52.60
2019-02-16T15:06:30.382Z,52.40
2019-02-16T15:08:05.894Z,52.50
2019-02-16T15:09:41.409Z,52.60
2019-02-16T15:11:19.978Z,52.30
2019-02-16T15:12:55.486Z,52.40
2019-02-16T15:14:31.252Z,52.40
2019-02-16T15:16:06.950Z,52.60
2019-02-16T15:17:42.674Z,53.20
2019-02-16T15:19:18.182Z,53.30
2019-02-16T15:20:53.713Z,53.70
2019-02-16T15:22:29.214Z,54.10
2019-02-16T15:24:04.777Z,54.10
2019-02-16T15:25:40.329Z,54.30
2019-02-16T15:27:17.322Z,55.00
2019-02-16T15:28:52.930Z,55.60
2019-02-16T15:30:28.458Z,55.60
2019-02-16T15:32:03.947Z,56.10
2019-02-16T15:33:39.445Z,56.10
2019-02-16T15:35:15.046Z,56.10
2019-02-16T15:36:52.369Z,56.20
2019-02-16T15:38:28.050Z,56.50
2019-02-16T15:40:06.383Z,56.90
2019-02-16T15:41:42.011Z,57.50
2019-02-16T15:43:17.579Z,57.70
2019-02-16T15:44:53.183Z,58.60
2019-02-16T15:46:28.783Z,58.10
2019-02-16T15:48:04.512Z,58.00
2019-02-16T15:49:41.179Z,58.10
2019-02-16T15:51:18.641Z,58.70
2019-02-16T15:52:54.031Z,59.60
2019-02-16T15:54:29.664Z,59.90
2019-02-16T15:56:10.560Z,59.70
2019-02-16T15:57:42.774Z,59.70
2019-02-16T15:59:19.782Z,59.50
2019-02-16T16:00:55.370Z,59.70
2019-02-16T16:02:30.956Z,60.10
2019-02-16T16:04:06.533Z,60.70
2019-02-16T16:05:42.131Z,60.90
2019-02-16T16:07:18.115Z,61.00
2019-02-16T16:08:59.305Z,61.30
2019-02-16T16:10:36.812Z,61.50
2019-02-16T16:12:14.155Z,61.70
2019-02-16T16:13:49.550Z,61.80
2019-02-16T16:15:27.778Z,62.20
2019-02-16T16:17:07.527Z,62.60
2019-02-16T16:18:57.935Z,62.80
2019-02-16T16:20:35.279Z,63.30
2019-02-16T16:22:23.372Z,63.40
2019-02-16T16:24:12.622Z,63.90
2019-02-16T16:25:56.112Z,64.10
2019-02-16T16:27:39.253Z,64.30
2019-02-16T16:29:32.714Z,64.60
2019-02-16T16:31:11.514Z,64.70
2019-02-16T16:32:47.126Z,65.30
2019-02-16T16:34:24.376Z,66.20
2019-02-16T16:36:05.868Z,66.80
2019-02-16T16:37:43.219Z,67.10
2019-02-16T16:39:32.181Z,67.10
2019-02-16T16:41:09.591Z,67.20
2019-02-16T16:42:46.980Z,67.40
2019-02-16T16:44:36.503Z,67.60
2019-02-16T16:46:30.112Z,68.00
2019-02-16T16:48:07.459Z,68.10
2019-02-16T16:49:44.595Z,68.40
2019-02-16T16:51:27.763Z,68.60
2019-02-16T16:53:07.485Z,68.30
2019-02-16T16:54:56.651Z,69.10
2019-02-16T16:56:33.893Z,68.30
2019-02-16T16:58:19.801Z,68.30
2019-02-16T17:00:13.659Z,68.10
2019-02-16T17:01:48.922Z,68.00
2019-02-16T17:03:24.316Z,67.90
2019-02-16T17:05:18.278Z,67.90
2019-02-16T17:06:55.424Z,67.90
2019-02-16T17:08:32.806Z,67.90
2019-02-16T17:10:10.048Z,67.80
2019-02-16T17:12:05.353Z,68.00
2019-02-16T17:13:51.429Z,68.00
2019-02-16T17:15:31.636Z,68.20
2019-02-16T17:17:11.755Z,68.10
2019-02-16T17:18:51.990Z,68.60
2019-02-16T17:20:32.162Z,69.30
2019-02-16T17:22:12.193Z,68.70
2019-02-16T17:24:01.193Z,68.80
2019-02-16T17:25:54.883Z,68.90
2019-02-16T17:27:36.347Z,68.90
2019-02-16T17:29:13.484Z,69.00
2019-02-16T17:30:50.644Z,69.60
2019-02-16T17:32:33.596Z,68.60
2019-02-16T17:34:22.449Z,68.90
2019-02-16T17:36:11.429Z,68.90
2019-02-16T17:37:51.158Z,68.70
2019-02-16T17:39:31.106Z,68.80
2019-02-16T17:41:11.189Z,68.70
2019-02-16T17:42:46.459Z,69.30
2019-02-16T17:44:39.803Z,69.20
2019-02-16T17:46:33.003Z,69.90
2019-02-16T17:48:19.042Z,69.50
2019-02-16T17:50:12.606Z,69.40
2019-02-16T17:52:04.436Z,69.50
2019-02-16T17:53:51.545Z,69.60
2019-02-16T17:55:31.195Z,69.30
2019-02-16T17:57:24.614Z,69.40
2019-02-16T17:59:04.448Z,69.40
2019-02-16T18:00:45.633Z,69.40
2019-02-16T18:02:25.856Z,69.60
2019-02-16T18:04:01.241Z,69.80
2019-02-16T18:05:53.422Z,69.70
2019-02-16T18:07:31.179Z,70.00
2019-02-16T18:09:08.910Z,70.20
2019-02-16T18:11:03.094Z,70.40
2019-02-16T18:12:56.905Z,70.20
2019-02-16T18:14:35.393Z,70.20
2019-02-16T18:16:32.311Z,70.30
2019-02-16T18:18:26.134Z,70.40
2019-02-16T18:20:03.383Z,70.80
2019-02-16T18:21:48.090Z,70.60
2019-02-16T18:23:43.772Z,70.70
2019-02-16T18:27:40.302Z,70.70
2019-02-16T18:29:15.735Z,70.60
2019-02-16T18:30:59.147Z,70.70
2019-02-16T18:32:42.032Z,70.70
2019-02-16T18:34:34.545Z,70.90
2019-02-16T18:36:20.719Z,70.90
2019-02-16T18:38:09.676Z,70.90
2019-02-16T18:39:47.052Z,70.60
2019-02-16T18:41:27.227Z,70.50
2019-02-16T18:43:16.656Z,70.20
2019-02-16T18:44:56.309Z,70.00
2019-02-16T18:46:36.271Z,69.50
2019-02-16T18:48:16.352Z,69.40
2019-02-16T18:50:00.351Z,69.40
2019-02-16T18:51:54.105Z,70.10
2019-02-16T18:53:43.292Z,69.30
2019-02-16T18:55:37.992Z,69.10
2019-02-16T18:57:15.264Z,68.80
2019-02-16T18:58:52.495Z,68.90
2019-02-16T19:00:32.742Z,69.20
2019-02-16T19:02:13.871Z,69.30
2019-02-16T19:03:51.117Z,69.40
2019-02-16T19:05:46.640Z,70.10
2019-02-16T19:07:29.364Z,69.30
2019-02-16T19:09:10.369Z,69.00
2019-02-16T19:10:50.482Z,68.90
2019-02-16T19:12:43.663Z,68.60
2019-02-16T19:14:39.293Z,68.80
2019-02-16T19:16:32.360Z,68.30
2019-02-16T19:18:09.598Z,68.40
2019-02-16T19:19:52.981Z,68.40
2019-02-16T19:21:38.723Z,68.40
2019-02-16T19:23:21.717Z,68.60
2019-02-16T19:24:58.960Z,69.10
2019-02-16T19:26:36.123Z,69.00
2019-02-16T19:28:29.599Z,69.10
2019-02-16T19:30:18.651Z,69.20
2019-02-16T19:32:01.655Z,69.20
2019-02-16T19:33:41.375Z,69.20
2019-02-16T19:35:34.559Z,69.50
2019-02-16T19:37:27.094Z,69.50
2019-02-16T19:39:02.571Z,69.70
2019-02-16T19:40:53.232Z,70.00
2019-02-16T19:42:39.423Z,70.00
2019-02-16T19:44:22.790Z,70.20
2019-02-16T19:46:00.071Z,70.20
2019-02-16T19:47:44.660Z,70.40
2019-02-16T19:49:24.249Z,70.50
2019-02-16T19:51:01.494Z,70.70
2019-02-16T19:52:38.672Z,70.90
2019-02-16T19:54:22.982Z,71.00
2019-02-16T19:56:18.846Z,71.00
2019-02-16T19:57:56.105Z,71.20
2019-02-16T19:59:33.462Z,71.40
2019-02-16T20:01:26.734Z,71.50
2019-02-16T20:03:02.270Z,71.60
2019-02-16T20:04:39.445Z,71.50
2019-02-16T20:06:22.552Z,71.30
2019-02-16T20:08:05.873Z,71.60
2019-02-16T20:09:43.257Z,71.30
2019-02-16T20:11:30.601Z,71.40
2019-02-16T20:13:13.591Z,71.60
2019-02-16T20:14:59.853Z,71.60
2019-02-16T20:16:53.253Z,71.80
2019-02-16T20:18:42.762Z,72.10
2019-02-16T20:20:31.681Z,72.20
2019-02-16T20:22:20.983Z,72.50
2019-02-16T20:24:04.323Z,73.20
2019-02-16T20:25:41.590Z,72.70
2019-02-16T20:27:36.713Z,72.50
2019-02-16T20:29:15.424Z,72.60
2019-02-16T20:31:08.708Z,72.50
2019-02-16T20:32:48.913Z,72.30
2019-02-16T20:34:26.060Z,72.50
2019-02-16T20:36:05.923Z,72.60
2019-02-16T20:37:45.943Z,72.80
2019-02-16T20:39:23.208Z,72.50
2019-02-16T20:41:09.740Z,72.70
2019-02-16T20:42:59.230Z,73.10
2019-02-16T20:44:39.380Z,73.10
2019-02-16T20:46:19.882Z,73.10
2019-02-16T20:47:57.059Z,73.30
2019-02-16T20:49:38.409Z,73.50
2019-02-16T20:51:15.758Z,73.50
2019-02-16T20:53:06.392Z,73.10
2019-02-16T20:54:52.806Z,72.90
2019-02-16T20:56:36.718Z,72.60
2019-02-16T20:58:13.878Z,72.60
2019-02-16T21:00:06.304Z,72.70
2019-02-16T21:01:59.940Z,72.80
2019-02-16T21:03:43.221Z,72.90
2019-02-16T21:05:18.700Z,73.30
2019-02-16T21:07:13.915Z,73.50
2019-02-16T21:08:54.050Z,73.70
2019-02-16T21:10:31.292Z,73.80
2019-02-16T21:12:12.820Z,73.60
2019-02-16T21:13:55.927Z,73.40
2019-02-16T21:15:37.611Z,73.10
2019-02-16T21:17:23.922Z,73.00
2019-02-16T21:19:16.542Z,73.10
2019-02-16T21:20:53.972Z,73.10
2019-02-16T21:22:34.108Z,73.30
2019-02-16T21:24:11.345Z,73.30
2019-02-16T21:26:04.870Z,73.40
2019-02-16T21:27:42.139Z,73.40
2019-02-16T21:29:35.403Z,73.30